Dodge City, Kansas
Current Conditions -  °F | °C
As of 5:52 AM on Friday 24 Oct 2014 (Local Time) from KDDC Reporting Station
Haze Haze  
Wind Chill: 56°   Ceiling: Unl
Heat Index: 56°   Visibility: 6mi
Dew Point: 53°   Wind: 8mph
Humidity: 90%   Direction: 210°SSW
Pressure: 30.05"   Gusts: NA
Location:  37.75°N, 100.01°W
Report Text: KDDC 241052Z AUTO 21007KT 6SM BR CLR 13/12 A3005 RMK AO2 SLP156 T01330117
Loading
Personal Weather Stations






























Interactive Weather Map New forecast layout! Learn more

10-Day Weather Forecast

Advertisements
Track Severe Weather on mobile